sensor_id;sensor_type;location;lat;lon;timestamp;P1;durP1;ratioP1;P2;durP2;ratioP2
35578;SDS011;21687;48.900;9.188;2023-06-10T00:01:58;7.03;;;6.33;;
35578;SDS011;21687;48.900;9.188;2023-06-10T00:04:25;6.97;;;6.27;;
35578;SDS011;21687;48.900;9.188;2023-06-10T00:06:52;7.70;;;5.73;;
35578;SDS011;21687;48.900;9.188;2023-06-10T00:09:19;6.57;;;5.70;;
35578;SDS011;21687;48.900;9.188;2023-06-10T00:11:46;6.43;;;5.83;;
35578;SDS011;21687;48.900;9.188;2023-06-10T00:14:13;6.93;;;6.10;;
35578;SDS011;21687;48.900;9.188;2023-06-10T00:16:40;6.00;;;5.40;;
35578;SDS011;21687;48.900;9.188;2023-06-10T00:19:10;6.67;;;6.03;;
35578;SDS011;21687;48.900;9.188;2023-06-10T00:21:39;7.60;;;5.73;;
35578;SDS011;21687;48.900;9.188;2023-06-10T00:24:06;10.67;;;6.27;;
35578;SDS011;21687;48.900;9.188;2023-06-10T00:26:37;6.03;;;5.43;;
35578;SDS011;21687;48.900;9.188;2023-06-10T00:29:04;6.93;;;6.17;;
35578;SDS011;21687;48.900;9.188;2023-06-10T00:31:31;7.27;;;6.50;;
35578;SDS011;21687;48.900;9.188;2023-06-10T00:33:58;8.03;;;6.50;;
35578;SDS011;21687;48.900;9.188;2023-06-10T00:36:25;6.87;;;6.27;;
35578;SDS011;21687;48.900;9.188;2023-06-10T00:38:52;6.67;;;6.07;;
35578;SDS011;21687;48.900;9.188;2023-06-10T00:41:18;7.80;;;6.70;;
35578;SDS011;21687;48.900;9.188;2023-06-10T00:43:45;6.90;;;6.30;;
35578;SDS011;21687;48.900;9.188;2023-06-10T00:46:11;6.60;;;6.00;;
35578;SDS011;21687;48.900;9.188;2023-06-10T00:48:42;6.40;;;5.80;;
35578;SDS011;21687;48.900;9.188;2023-06-10T00:51:10;7.37;;;6.20;;
35578;SDS011;21687;48.900;9.188;2023-06-10T00:53:37;7.33;;;6.63;;
35578;SDS011;21687;48.900;9.188;2023-06-10T00:56:06;8.30;;;6.03;;
35578;SDS011;21687;48.900;9.188;2023-06-10T00:58:34;7.87;;;6.17;;
35578;SDS011;21687;48.900;9.188;2023-06-10T01:01:01;8.00;;;7.20;;
35578;SDS011;21687;48.900;9.188;2023-06-10T01:03:29;7.40;;;6.60;;
35578;SDS011;21687;48.900;9.188;2023-06-10T01:05:59;6.87;;;6.23;;
35578;SDS011;21687;48.900;9.188;2023-06-10T01:08:44;6.27;;;5.77;;
35578;SDS011;21687;48.900;9.188;2023-06-10T01:11:23;6.60;;;6.00;;
35578;SDS011;21687;48.900;9.188;2023-06-10T01:13:59;7.17;;;6.57;;
35578;SDS011;21687;48.900;9.188;2023-06-10T01:16:27;6.93;;;6.23;;
35578;SDS011;21687;48.900;9.188;2023-06-10T01:18:54;7.37;;;6.67;;
35578;SDS011;21687;48.900;9.188;2023-06-10T01:21:24;7.23;;;6.53;;
35578;SDS011;21687;48.900;9.188;2023-06-10T01:23:52;6.57;;;5.93;;
35578;SDS011;21687;48.900;9.188;2023-06-10T01:26:22;6.63;;;6.10;;
35578;SDS011;21687;48.900;9.188;2023-06-10T01:28:58;8.23;;;6.47;;
35578;SDS011;21687;48.900;9.188;2023-06-10T01:34:17;6.40;;;5.80;;
35578;SDS011;21687;48.900;9.188;2023-06-10T01:36:45;6.80;;;6.20;;
35578;SDS011;21687;48.900;9.188;2023-06-10T01:39:17;6.10;;;5.50;;
35578;SDS011;21687;48.900;9.188;2023-06-10T01:41:48;6.40;;;5.90;;
35578;SDS011;21687;48.900;9.188;2023-06-10T01:44:20;6.30;;;5.70;;
35578;SDS011;21687;48.900;9.188;2023-06-10T01:46:47;6.20;;;5.70;;
35578;SDS011;21687;48.900;9.188;2023-06-10T01:49:15;7.00;;;6.40;;
35578;SDS011;21687;48.900;9.188;2023-06-10T01:51:41;6.97;;;6.37;;
35578;SDS011;21687;48.900;9.188;2023-06-10T01:54:07;6.30;;;5.80;;
35578;SDS011;21687;48.900;9.188;2023-06-10T01:56:34;6.80;;;6.20;;
35578;SDS011;21687;48.900;9.188;2023-06-10T01:59:00;6.53;;;5.57;;
35578;SDS011;21687;48.900;9.188;2023-06-10T02:01:26;6.83;;;6.17;;
35578;SDS011;21687;48.900;9.188;2023-06-10T02:03:54;6.37;;;5.77;;
35578;SDS011;21687;48.900;9.188;2023-06-10T02:06:21;8.50;;;7.70;;
35578;SDS011;21687;48.900;9.188;2023-06-10T02:08:47;6.47;;;5.87;;
35578;SDS011;21687;48.900;9.188;2023-06-10T02:11:14;6.07;;;5.47;;
35578;SDS011;21687;48.900;9.188;2023-06-10T02:13:40;6.83;;;6.10;;
35578;SDS011;21687;48.900;9.188;2023-06-10T02:16:08;6.53;;;5.50;;
35578;SDS011;21687;48.900;9.188;2023-06-10T02:18:38;7.37;;;6.67;;
35578;SDS011;21687;48.900;9.188;2023-06-10T02:21:08;6.00;;;5.50;;
35578;SDS011;21687;48.900;9.188;2023-06-10T02:23:35;6.73;;;6.13;;
35578;SDS011;21687;48.900;9.188;2023-06-10T02:26:02;6.90;;;6.17;;
35578;SDS011;21687;48.900;9.188;2023-06-10T02:28:28;6.30;;;5.70;;
35578;SDS011;21687;48.900;9.188;2023-06-10T02:30:55;6.60;;;6.00;;
35578;SDS011;21687;48.900;9.188;2023-06-10T02:33:22;6.50;;;5.90;;
35578;SDS011;21687;48.900;9.188;2023-06-10T02:35:49;15.83;;;11.27;;
35578;SDS011;21687;48.900;9.188;2023-06-10T02:38:15;7.53;;;6.83;;
35578;SDS011;21687;48.900;9.188;2023-06-10T02:40:42;9.03;;;6.03;;
35578;SDS011;21687;48.900;9.188;2023-06-10T02:43:08;6.20;;;5.70;;
35578;SDS011;21687;48.900;9.188;2023-06-10T02:45:35;6.83;;;6.23;;
35578;SDS011;21687;48.900;9.188;2023-06-10T02:48:01;7.50;;;6.03;;
35578;SDS011;21687;48.900;9.188;2023-06-10T02:50:28;6.37;;;5.87;;
35578;SDS011;21687;48.900;9.188;2023-06-10T02:52:54;6.30;;;5.73;;
35578;SDS011;21687;48.900;9.188;2023-06-10T02:55:20;6.70;;;6.10;;
35578;SDS011;21687;48.900;9.188;2023-06-10T02:57:46;6.97;;;6.17;;
35578;SDS011;21687;48.900;9.188;2023-06-10T03:00:13;6.53;;;5.93;;
35578;SDS011;21687;48.900;9.188;2023-06-10T03:02:39;5.90;;;5.30;;
35578;SDS011;21687;48.900;9.188;2023-06-10T03:05:06;7.40;;;6.67;;
35578;SDS011;21687;48.900;9.188;2023-06-10T03:07:36;6.23;;;5.73;;
35578;SDS011;21687;48.900;9.188;2023-06-10T03:10:03;7.57;;;5.93;;
35578;SDS011;21687;48.900;9.188;2023-06-10T03:12:30;6.70;;;6.10;;
35578;SDS011;21687;48.900;9.188;2023-06-10T03:14:56;6.80;;;6.10;;
35578;SDS011;21687;48.900;9.188;2023-06-10T03:17:22;6.60;;;5.87;;
35578;SDS011;21687;48.900;9.188;2023-06-10T03:19:49;6.07;;;5.53;;
35578;SDS011;21687;48.900;9.188;2023-06-10T03:22:15;6.00;;;5.40;;
35578;SDS011;21687;48.900;9.188;2023-06-10T03:24:42;7.73;;;6.30;;
35578;SDS011;21687;48.900;9.188;2023-06-10T03:27:12;6.63;;;5.97;;
35578;SDS011;21687;48.900;9.188;2023-06-10T03:29:39;5.90;;;5.40;;
35578;SDS011;21687;48.900;9.188;2023-06-10T03:32:06;6.77;;;6.03;;
35578;SDS011;21687;48.900;9.188;2023-06-10T03:34:32;7.00;;;6.30;;
35578;SDS011;21687;48.900;9.188;2023-06-10T03:36:59;6.87;;;6.23;;
35578;SDS011;21687;48.900;9.188;2023-06-10T03:39:25;6.73;;;6.13;;
35578;SDS011;21687;48.900;9.188;2023-06-10T03:41:54;6.90;;;6.30;;
35578;SDS011;21687;48.900;9.188;2023-06-10T03:44:24;7.17;;;6.47;;
35578;SDS011;21687;48.900;9.188;2023-06-10T03:46:54;7.30;;;6.60;;
35578;SDS011;21687;48.900;9.188;2023-06-10T03:49:21;6.30;;;5.70;;
35578;SDS011;21687;48.900;9.188;2023-06-10T03:51:52;5.60;;;5.10;;
35578;SDS011;21687;48.900;9.188;2023-06-10T03:54:19;9.63;;;5.80;;
35578;SDS011;21687;48.900;9.188;2023-06-10T03:56:45;5.67;;;5.17;;
35578;SDS011;21687;48.900;9.188;2023-06-10T03:59:13;6.40;;;5.80;;
35578;SDS011;21687;48.900;9.188;2023-06-10T04:01:39;7.20;;;5.57;;
35578;SDS011;21687;48.900;9.188;2023-06-10T04:04:06;6.97;;;5.00;;
35578;SDS011;21687;48.900;9.188;2023-06-10T04:06:33;5.33;;;4.83;;
35578;SDS011;21687;48.900;9.188;2023-06-10T04:08:59;5.77;;;5.10;;
35578;SDS011;21687;48.900;9.188;2023-06-10T04:11:25;5.50;;;4.83;;
35578;SDS011;21687;48.900;9.188;2023-06-10T04:13:51;4.93;;;4.43;;
35578;SDS011;21687;48.900;9.188;2023-06-10T04:16:18;5.50;;;5.00;;
35578;SDS011;21687;48.900;9.188;2023-06-10T04:18:46;8.47;;;6.17;;
35578;SDS011;21687;48.900;9.188;2023-06-10T04:21:12;6.43;;;4.93;;
35578;SDS011;21687;48.900;9.188;2023-06-10T04:23:39;5.40;;;4.90;;
35578;SDS011;21687;48.900;9.188;2023-06-10T04:26:05;4.70;;;4.33;;
35578;SDS011;21687;48.900;9.188;2023-06-10T04:28:32;5.93;;;4.87;;
35578;SDS011;21687;48.900;9.188;2023-06-10T04:30:58;4.73;;;4.30;;
35578;SDS011;21687;48.900;9.188;2023-06-10T04:33:26;5.63;;;4.60;;
35578;SDS011;21687;48.900;9.188;2023-06-10T04:35:53;5.23;;;4.73;;
35578;SDS011;21687;48.900;9.188;2023-06-10T04:38:19;5.03;;;4.63;;
35578;SDS011;21687;48.900;9.188;2023-06-10T04:40:46;5.80;;;4.23;;
35578;SDS011;21687;48.900;9.188;2023-06-10T04:43:13;6.40;;;4.63;;
35578;SDS011;21687;48.900;9.188;2023-06-10T04:45:39;4.83;;;4.43;;
35578;SDS011;21687;48.900;9.188;2023-06-10T04:48:10;4.30;;;4.00;;
35578;SDS011;21687;48.900;9.188;2023-06-10T04:50:37;4.60;;;4.20;;
35578;SDS011;21687;48.900;9.188;2023-06-10T04:53:04;4.30;;;4.00;;
35578;SDS011;21687;48.900;9.188;2023-06-10T04:55:31;4.70;;;4.10;;
35578;SDS011;21687;48.900;9.188;2023-06-10T04:57:58;6.47;;;4.07;;
35578;SDS011;21687;48.900;9.188;2023-06-10T05:00:25;4.50;;;4.10;;
35578;SDS011;21687;48.900;9.188;2023-06-10T05:02:51;4.07;;;3.77;;
35578;SDS011;21687;48.900;9.188;2023-06-10T05:05:17;5.73;;;4.50;;
35578;SDS011;21687;48.900;9.188;2023-06-10T05:07:45;4.10;;;3.77;;
35578;SDS011;21687;48.900;9.188;2023-06-10T05:10:11;4.43;;;4.03;;
35578;SDS011;21687;48.900;9.188;2023-06-10T05:12:38;4.50;;;4.10;;
35578;SDS011;21687;48.900;9.188;2023-06-10T05:15:06;5.10;;;4.00;;
35578;SDS011;21687;48.900;9.188;2023-06-10T05:17:33;4.43;;;4.03;;
35578;SDS011;21687;48.900;9.188;2023-06-10T05:20:02;4.57;;;4.17;;
35578;SDS011;21687;48.900;9.188;2023-06-10T05:22:29;4.27;;;3.90;;
35578;SDS011;21687;48.900;9.188;2023-06-10T05:24:55;4.50;;;4.10;;
35578;SDS011;21687;48.900;9.188;2023-06-10T05:27:22;4.53;;;3.90;;
35578;SDS011;21687;48.900;9.188;2023-06-10T05:29:48;4.53;;;4.13;;
35578;SDS011;21687;48.900;9.188;2023-06-10T05:32:17;4.43;;;4.13;;
35578;SDS011;21687;48.900;9.188;2023-06-10T05:34:43;4.70;;;4.30;;
35578;SDS011;21687;48.900;9.188;2023-06-10T05:37:10;4.27;;;3.87;;
35578;SDS011;21687;48.900;9.188;2023-06-10T05:39:37;4.50;;;4.03;;
35578;SDS011;21687;48.900;9.188;2023-06-10T05:42:04;5.93;;;4.87;;
35578;SDS011;21687;48.900;9.188;2023-06-10T05:44:32;4.40;;;4.00;;
35578;SDS011;21687;48.900;9.188;2023-06-10T05:46:58;4.30;;;3.90;;
35578;SDS011;21687;48.900;9.188;2023-06-10T05:49:25;4.50;;;4.10;;
35578;SDS011;21687;48.900;9.188;2023-06-10T05:51:51;4.20;;;3.90;;
35578;SDS011;21687;48.900;9.188;2023-06-10T05:54:18;4.07;;;3.77;;
35578;SDS011;21687;48.900;9.188;2023-06-10T05:56:45;4.70;;;4.30;;
35578;SDS011;21687;48.900;9.188;2023-06-10T05:59:11;4.33;;;3.93;;
35578;SDS011;21687;48.900;9.188;2023-06-10T06:01:38;4.23;;;3.83;;
35578;SDS011;21687;48.900;9.188;2023-06-10T06:04:04;6.73;;;4.17;;
35578;SDS011;21687;48.900;9.188;2023-06-10T06:06:30;4.30;;;3.90;;
35578;SDS011;21687;48.900;9.188;2023-06-10T06:08:56;6.10;;;3.87;;
35578;SDS011;21687;48.900;9.188;2023-06-10T06:11:23;4.20;;;3.80;;
35578;SDS011;21687;48.900;9.188;2023-06-10T06:13:50;4.40;;;4.00;;
35578;SDS011;21687;48.900;9.188;2023-06-10T06:16:17;4.53;;;3.77;;
35578;SDS011;21687;48.900;9.188;2023-06-10T06:18:43;4.87;;;4.00;;
35578;SDS011;21687;48.900;9.188;2023-06-10T06:21:10;4.27;;;3.93;;
35578;SDS011;21687;48.900;9.188;2023-06-10T06:23:36;4.53;;;4.13;;
35578;SDS011;21687;48.900;9.188;2023-06-10T06:26:03;4.43;;;4.10;;
35578;SDS011;21687;48.900;9.188;2023-06-10T06:28:29;4.43;;;4.03;;
35578;SDS011;21687;48.900;9.188;2023-06-10T06:30:56;4.43;;;3.70;;
35578;SDS011;21687;48.900;9.188;2023-06-10T06:33:22;4.87;;;4.07;;
35578;SDS011;21687;48.900;9.188;2023-06-10T06:35:51;4.30;;;3.90;;
35578;SDS011;21687;48.900;9.188;2023-06-10T06:38:17;4.37;;;3.90;;
35578;SDS011;21687;48.900;9.188;2023-06-10T06:40:44;4.60;;;4.20;;
35578;SDS011;21687;48.900;9.188;2023-06-10T06:43:10;5.67;;;4.13;;
35578;SDS011;21687;48.900;9.188;2023-06-10T06:45:36;4.83;;;4.30;;
35578;SDS011;21687;48.900;9.188;2023-06-10T06:48:04;6.03;;;4.10;;
35578;SDS011;21687;48.900;9.188;2023-06-10T06:50:31;4.47;;;4.07;;
35578;SDS011;21687;48.900;9.188;2023-06-10T06:52:57;4.40;;;4.10;;
35578;SDS011;21687;48.900;9.188;2023-06-10T06:55:23;4.07;;;3.77;;
35578;SDS011;21687;48.900;9.188;2023-06-10T06:57:50;4.17;;;3.77;;
35578;SDS011;21687;48.900;9.188;2023-06-10T07:00:16;4.37;;;3.90;;
35578;SDS011;21687;48.900;9.188;2023-06-10T07:02:43;4.80;;;4.40;;
35578;SDS011;21687;48.900;9.188;2023-06-10T07:05:09;4.60;;;4.20;;
35578;SDS011;21687;48.900;9.188;2023-06-10T07:07:35;4.50;;;4.10;;
35578;SDS011;21687;48.900;9.188;2023-06-10T07:10:02;4.40;;;4.00;;
35578;SDS011;21687;48.900;9.188;2023-06-10T07:12:28;4.53;;;4.13;;
35578;SDS011;21687;48.900;9.188;2023-06-10T07:14:54;4.07;;;3.70;;
35578;SDS011;21687;48.900;9.188;2023-06-10T07:17:20;5.20;;;4.30;;
35578;SDS011;21687;48.900;9.188;2023-06-10T07:19:47;4.50;;;4.10;;
35578;SDS011;21687;48.900;9.188;2023-06-10T07:22:14;4.70;;;4.30;;
35578;SDS011;21687;48.900;9.188;2023-06-10T07:24:40;4.87;;;4.47;;
35578;SDS011;21687;48.900;9.188;2023-06-10T07:27:06;4.83;;;4.37;;
35578;SDS011;21687;48.900;9.188;2023-06-10T07:29:33;4.80;;;4.40;;
35578;SDS011;21687;48.900;9.188;2023-06-10T07:32:01;4.70;;;4.30;;
35578;SDS011;21687;48.900;9.188;2023-06-10T07:34:28;4.90;;;4.50;;
35578;SDS011;21687;48.900;9.188;2023-06-10T07:36:56;4.90;;;4.50;;
35578;SDS011;21687;48.900;9.188;2023-06-10T07:39:22;4.40;;;4.00;;
35578;SDS011;21687;48.900;9.188;2023-06-10T07:41:48;3.90;;;3.60;;
35578;SDS011;21687;48.900;9.188;2023-06-10T07:44:15;4.50;;;4.13;;
35578;SDS011;21687;48.900;9.188;2023-06-10T07:46:41;5.73;;;4.40;;
35578;SDS011;21687;48.900;9.188;2023-06-10T07:49:08;4.70;;;4.30;;
35578;SDS011;21687;48.900;9.188;2023-06-10T07:51:34;4.10;;;3.80;;
35578;SDS011;21687;48.900;9.188;2023-06-10T07:54:01;4.90;;;4.50;;
35578;SDS011;21687;48.900;9.188;2023-06-10T07:56:28;4.43;;;4.03;;
35578;SDS011;21687;48.900;9.188;2023-06-10T07:58:54;4.80;;;4.40;;
35578;SDS011;21687;48.900;9.188;2023-06-10T08:01:22;5.90;;;4.43;;
35578;SDS011;21687;48.900;9.188;2023-06-10T08:03:48;4.67;;;4.27;;
35578;SDS011;21687;48.900;9.188;2023-06-10T08:06:15;5.27;;;4.60;;
35578;SDS011;21687;48.900;9.188;2023-06-10T08:08:42;5.00;;;4.50;;
35578;SDS011;21687;48.900;9.188;2023-06-10T08:11:12;4.80;;;4.40;;
35578;SDS011;21687;48.900;9.188;2023-06-10T08:13:39;4.67;;;4.27;;
35578;SDS011;21687;48.900;9.188;2023-06-10T08:16:05;4.70;;;4.30;;
35578;SDS011;21687;48.900;9.188;2023-06-10T08:25:18;4.70;;;4.30;;
35578;SDS011;21687;48.900;9.188;2023-06-10T08:27:47;5.17;;;4.67;;
35578;SDS011;21687;48.900;9.188;2023-06-10T08:30:13;6.10;;;4.13;;
35578;SDS011;21687;48.900;9.188;2023-06-10T08:32:40;4.77;;;4.37;;
35578;SDS011;21687;48.900;9.188;2023-06-10T08:35:06;4.50;;;4.10;;
35578;SDS011;21687;48.900;9.188;2023-06-10T08:37:33;4.87;;;4.47;;
35578;SDS011;21687;48.900;9.188;2023-06-10T08:39:59;5.10;;;4.60;;
35578;SDS011;21687;48.900;9.188;2023-06-10T08:45:02;4.80;;;4.40;;
35578;SDS011;21687;48.900;9.188;2023-06-10T08:47:29;5.10;;;4.60;;
35578;SDS011;21687;48.900;9.188;2023-06-10T08:50:01;4.47;;;4.10;;
35578;SDS011;21687;48.900;9.188;2023-06-10T08:52:33;7.27;;;4.30;;
35578;SDS011;21687;48.900;9.188;2023-06-10T08:55:03;4.80;;;4.40;;
35578;SDS011;21687;48.900;9.188;2023-06-10T08:57:35;4.60;;;4.20;;
35578;SDS011;21687;48.900;9.188;2023-06-10T09:00:03;5.13;;;4.60;;
35578;SDS011;21687;48.900;9.188;2023-06-10T09:02:30;4.77;;;4.27;;
35578;SDS011;21687;48.900;9.188;2023-06-10T09:05:00;4.03;;;3.73;;
35578;SDS011;21687;48.900;9.188;2023-06-10T09:07:27;4.60;;;4.23;;
35578;SDS011;21687;48.900;9.188;2023-06-10T09:09:56;4.87;;;4.23;;
35578;SDS011;21687;48.900;9.188;2023-06-10T09:12:24;4.40;;;4.00;;
35578;SDS011;21687;48.900;9.188;2023-06-10T09:14:50;4.90;;;4.00;;
35578;SDS011;21687;48.900;9.188;2023-06-10T09:17:16;4.30;;;3.90;;
35578;SDS011;21687;48.900;9.188;2023-06-10T09:19:43;4.23;;;3.83;;
35578;SDS011;21687;48.900;9.188;2023-06-10T09:22:10;6.43;;;4.40;;
35578;SDS011;21687;48.900;9.188;2023-06-10T09:24:37;4.57;;;3.93;;
35578;SDS011;21687;48.900;9.188;2023-06-10T09:27:06;6.17;;;4.57;;
35578;SDS011;21687;48.900;9.188;2023-06-10T09:29:53;4.97;;;4.50;;
35578;SDS011;21687;48.900;9.188;2023-06-10T09:32:20;4.77;;;4.33;;
35578;SDS011;21687;48.900;9.188;2023-06-10T09:34:47;4.80;;;4.40;;
35578;SDS011;21687;48.900;9.188;2023-06-10T09:37:22;4.80;;;4.40;;
35578;SDS011;21687;48.900;9.188;2023-06-10T09:40:04;5.93;;;4.97;;
35578;SDS011;21687;48.900;9.188;2023-06-10T09:42:33;4.60;;;4.13;;
35578;SDS011;21687;48.900;9.188;2023-06-10T09:45:01;4.80;;;4.13;;
35578;SDS011;21687;48.900;9.188;2023-06-10T09:47:27;4.67;;;4.27;;
35578;SDS011;21687;48.900;9.188;2023-06-10T09:49:54;4.77;;;4.37;;
35578;SDS011;21687;48.900;9.188;2023-06-10T09:52:21;4.20;;;3.80;;
35578;SDS011;21687;48.900;9.188;2023-06-10T09:54:51;4.20;;;3.90;;
35578;SDS011;21687;48.900;9.188;2023-06-10T09:57:19;4.47;;;4.07;;
35578;SDS011;21687;48.900;9.188;2023-06-10T09:59:46;4.27;;;3.90;;
35578;SDS011;21687;48.900;9.188;2023-06-10T10:02:14;3.90;;;3.60;;
35578;SDS011;21687;48.900;9.188;2023-06-10T10:04:43;4.93;;;3.83;;
35578;SDS011;21687;48.900;9.188;2023-06-10T10:07:10;4.30;;;3.97;;
35578;SDS011;21687;48.900;9.188;2023-06-10T10:09:40;4.10;;;3.70;;
35578;SDS011;21687;48.900;9.188;2023-06-10T10:12:11;6.20;;;4.03;;
35578;SDS011;21687;48.900;9.188;2023-06-10T10:14:42;3.93;;;3.60;;
35578;SDS011;21687;48.900;9.188;2023-06-10T10:17:13;5.40;;;3.83;;
35578;SDS011;21687;48.900;9.188;2023-06-10T10:19:48;4.17;;;3.87;;
35578;SDS011;21687;48.900;9.188;2023-06-10T10:22:20;4.10;;;3.80;;
35578;SDS011;21687;48.900;9.188;2023-06-10T10:24:55;4.37;;;4.03;;
35578;SDS011;21687;48.900;9.188;2023-06-10T10:27:56;4.00;;;3.70;;
35578;SDS011;21687;48.900;9.188;2023-06-10T10:30:32;4.23;;;3.73;;
35578;SDS011;21687;48.900;9.188;2023-06-10T10:33:12;4.27;;;3.87;;
35578;SDS011;21687;48.900;9.188;2023-06-10T10:35:43;6.87;;;3.73;;
35578;SDS011;21687;48.900;9.188;2023-06-10T10:38:11;3.97;;;3.67;;
35578;SDS011;21687;48.900;9.188;2023-06-10T10:40:38;4.63;;;4.23;;
35578;SDS011;21687;48.900;9.188;2023-06-10T10:43:05;4.23;;;3.70;;
35578;SDS011;21687;48.900;9.188;2023-06-10T10:45:35;4.70;;;4.30;;
35578;SDS011;21687;48.900;9.188;2023-06-10T10:48:08;5.27;;;4.30;;
35578;SDS011;21687;48.900;9.188;2023-06-10T10:50:37;4.57;;;4.17;;
35578;SDS011;21687;48.900;9.188;2023-06-10T10:53:04;4.67;;;4.27;;
35578;SDS011;21687;48.900;9.188;2023-06-10T10:55:31;4.77;;;4.10;;
35578;SDS011;21687;48.900;9.188;2023-06-10T10:58:07;5.03;;;4.40;;
35578;SDS011;21687;48.900;9.188;2023-06-10T11:00:44;5.30;;;4.43;;
35578;SDS011;21687;48.900;9.188;2023-06-10T11:03:15;4.27;;;3.87;;
35578;SDS011;21687;48.900;9.188;2023-06-10T11:05:46;3.77;;;3.53;;
35578;SDS011;21687;48.900;9.188;2023-06-10T11:08:14;4.30;;;3.70;;
35578;SDS011;21687;48.900;9.188;2023-06-10T11:11:01;3.93;;;3.63;;
35578;SDS011;21687;48.900;9.188;2023-06-10T11:16:30;4.20;;;3.90;;
35578;SDS011;21687;48.900;9.188;2023-06-10T11:19:07;4.17;;;3.77;;
35578;SDS011;21687;48.900;9.188;2023-06-10T11:21:56;4.40;;;4.00;;
35578;SDS011;21687;48.900;9.188;2023-06-10T11:24:26;4.70;;;3.80;;
35578;SDS011;21687;48.900;9.188;2023-06-10T11:26:53;4.20;;;3.80;;
35578;SDS011;21687;48.900;9.188;2023-06-10T11:29:21;4.00;;;3.70;;
35578;SDS011;21687;48.900;9.188;2023-06-10T11:31:49;3.93;;;3.53;;
35578;SDS011;21687;48.900;9.188;2023-06-10T11:34:21;6.73;;;3.50;;
35578;SDS011;21687;48.900;9.188;2023-06-10T11:36:49;3.70;;;3.40;;
35578;SDS011;21687;48.900;9.188;2023-06-10T11:39:16;3.50;;;3.20;;
35578;SDS011;21687;48.900;9.188;2023-06-10T11:41:45;3.43;;;3.23;;
35578;SDS011;21687;48.900;9.188;2023-06-10T11:44:11;3.60;;;3.40;;
35578;SDS011;21687;48.900;9.188;2023-06-10T11:46:39;4.00;;;3.60;;
35578;SDS011;21687;48.900;9.188;2023-06-10T11:49:07;3.83;;;3.20;;
35578;SDS011;21687;48.900;9.188;2023-06-10T11:51:38;3.13;;;2.93;;
35578;SDS011;21687;48.900;9.188;2023-06-10T11:54:10;3.63;;;3.33;;
35578;SDS011;21687;48.900;9.188;2023-06-10T11:56:36;3.77;;;3.47;;
35578;SDS011;21687;48.900;9.188;2023-06-10T11:59:03;4.03;;;3.67;;
35578;SDS011;21687;48.900;9.188;2023-06-10T12:01:41;3.60;;;3.40;;
35578;SDS011;21687;48.900;9.188;2023-06-10T12:04:11;3.77;;;3.37;;
35578;SDS011;21687;48.900;9.188;2023-06-10T12:06:41;4.47;;;3.23;;
35578;SDS011;21687;48.900;9.188;2023-06-10T12:11:50;3.60;;;3.30;;
35578;SDS011;21687;48.900;9.188;2023-06-10T12:17:43;3.50;;;3.23;;
35578;SDS011;21687;48.900;9.188;2023-06-10T12:20:25;3.60;;;3.40;;
35578;SDS011;21687;48.900;9.188;2023-06-10T12:22:53;3.50;;;3.20;;
35578;SDS011;21687;48.900;9.188;2023-06-10T12:25:24;3.40;;;3.20;;
35578;SDS011;21687;48.900;9.188;2023-06-10T12:27:52;3.63;;;3.33;;
35578;SDS011;21687;48.900;9.188;2023-06-10T12:30:20;3.23;;;3.03;;
35578;SDS011;21687;48.900;9.188;2023-06-10T12:32:48;3.57;;;3.27;;
35578;SDS011;21687;48.900;9.188;2023-06-10T12:35:19;3.50;;;3.30;;
35578;SDS011;21687;48.900;9.188;2023-06-10T12:37:56;3.20;;;3.00;;
35578;SDS011;21687;48.900;9.188;2023-06-10T12:40:26;3.23;;;3.03;;
35578;SDS011;21687;48.900;9.188;2023-06-10T12:42:54;3.60;;;3.27;;
35578;SDS011;21687;48.900;9.188;2023-06-10T12:45:28;3.50;;;3.20;;
35578;SDS011;21687;48.900;9.188;2023-06-10T12:48:10;3.27;;;3.03;;
35578;SDS011;21687;48.900;9.188;2023-06-10T12:50:50;2.97;;;2.73;;
35578;SDS011;21687;48.900;9.188;2023-06-10T12:53:21;3.30;;;3.00;;
35578;SDS011;21687;48.900;9.188;2023-06-10T12:55:48;3.50;;;3.20;;
35578;SDS011;21687;48.900;9.188;2023-06-10T12:58:15;3.67;;;3.37;;
35578;SDS011;21687;48.900;9.188;2023-06-10T13:00:42;3.10;;;2.80;;
35578;SDS011;21687;48.900;9.188;2023-06-10T13:03:08;3.37;;;3.07;;
35578;SDS011;21687;48.900;9.188;2023-06-10T13:05:35;3.23;;;2.93;;
35578;SDS011;21687;48.900;9.188;2023-06-10T13:08:04;3.90;;;2.97;;
35578;SDS011;21687;48.900;9.188;2023-06-10T13:10:32;3.20;;;3.00;;
35578;SDS011;21687;48.900;9.188;2023-06-10T13:13:00;3.00;;;2.70;;
35578;SDS011;21687;48.900;9.188;2023-06-10T13:15:27;2.90;;;2.70;;
35578;SDS011;21687;48.900;9.188;2023-06-10T13:17:54;2.90;;;2.70;;
35578;SDS011;21687;48.900;9.188;2023-06-10T13:20:20;2.80;;;2.60;;
35578;SDS011;21687;48.900;9.188;2023-06-10T13:22:47;3.07;;;2.83;;
35578;SDS011;21687;48.900;9.188;2023-06-10T13:25:14;3.23;;;3.00;;
35578;SDS011;21687;48.900;9.188;2023-06-10T13:27:40;4.97;;;3.10;;
35578;SDS011;21687;48.900;9.188;2023-06-10T13:30:08;4.27;;;3.07;;
35578;SDS011;21687;48.900;9.188;2023-06-10T13:32:36;2.83;;;2.63;;
35578;SDS011;21687;48.900;9.188;2023-06-10T13:35:04;3.07;;;2.87;;
35578;SDS011;21687;48.900;9.188;2023-06-10T13:37:31;3.03;;;2.83;;
35578;SDS011;21687;48.900;9.188;2023-06-10T13:39:58;5.03;;;3.50;;
35578;SDS011;21687;48.900;9.188;2023-06-10T13:42:25;3.40;;;3.10;;
35578;SDS011;21687;48.900;9.188;2023-06-10T13:44:54;3.07;;;2.87;;
35578;SDS011;21687;48.900;9.188;2023-06-10T13:47:21;3.83;;;2.97;;
35578;SDS011;21687;48.900;9.188;2023-06-10T13:49:48;3.50;;;3.20;;
35578;SDS011;21687;48.900;9.188;2023-06-10T13:52:14;3.40;;;3.10;;
35578;SDS011;21687;48.900;9.188;2023-06-10T13:54:41;3.50;;;3.23;;
35578;SDS011;21687;48.900;9.188;2023-06-10T13:57:07;4.93;;;3.13;;
35578;SDS011;21687;48.900;9.188;2023-06-10T13:59:35;3.43;;;3.13;;
35578;SDS011;21687;48.900;9.188;2023-06-10T14:02:02;3.03;;;2.83;;
35578;SDS011;21687;48.900;9.188;2023-06-10T14:04:29;3.47;;;3.17;;
35578;SDS011;21687;48.900;9.188;2023-06-10T14:06:55;3.80;;;3.50;;
35578;SDS011;21687;48.900;9.188;2023-06-10T14:09:23;3.90;;;3.23;;
35578;SDS011;21687;48.900;9.188;2023-06-10T14:11:49;3.73;;;3.43;;
35578;SDS011;21687;48.900;9.188;2023-06-10T14:14:15;3.50;;;3.13;;
35578;SDS011;21687;48.900;9.188;2023-06-10T14:16:42;3.63;;;3.43;;
35578;SDS011;21687;48.900;9.188;2023-06-10T14:19:08;3.23;;;3.03;;
35578;SDS011;21687;48.900;9.188;2023-06-10T14:21:35;3.90;;;3.60;;
35578;SDS011;21687;48.900;9.188;2023-06-10T14:24:01;3.77;;;3.47;;
35578;SDS011;21687;48.900;9.188;2023-06-10T14:26:28;3.27;;;2.70;;
35578;SDS011;21687;48.900;9.188;2023-06-10T14:28:55;3.60;;;3.30;;
35578;SDS011;21687;48.900;9.188;2023-06-10T14:31:21;3.60;;;3.30;;
35578;SDS011;21687;48.900;9.188;2023-06-10T14:33:47;3.50;;;3.20;;
35578;SDS011;21687;48.900;9.188;2023-06-10T14:36:13;3.90;;;3.60;;
35578;SDS011;21687;48.900;9.188;2023-06-10T14:38:40;3.70;;;3.40;;
35578;SDS011;21687;48.900;9.188;2023-06-10T14:41:06;3.63;;;3.30;;
35578;SDS011;21687;48.900;9.188;2023-06-10T14:43:32;4.10;;;3.30;;
35578;SDS011;21687;48.900;9.188;2023-06-10T14:45:59;4.37;;;3.63;;
35578;SDS011;21687;48.900;9.188;2023-06-10T14:48:25;3.67;;;3.37;;
35578;SDS011;21687;48.900;9.188;2023-06-10T14:50:52;4.07;;;3.10;;
35578;SDS011;21687;48.900;9.188;2023-06-10T14:53:20;3.60;;;3.30;;
35578;SDS011;21687;48.900;9.188;2023-06-10T14:55:46;3.20;;;2.90;;
35578;SDS011;21687;48.900;9.188;2023-06-10T14:58:13;3.30;;;3.10;;
35578;SDS011;21687;48.900;9.188;2023-06-10T15:00:39;4.80;;;3.10;;
35578;SDS011;21687;48.900;9.188;2023-06-10T15:03:05;3.57;;;3.33;;
35578;SDS011;21687;48.900;9.188;2023-06-10T15:05:31;3.53;;;3.23;;
35578;SDS011;21687;48.900;9.188;2023-06-10T15:07:59;3.27;;;3.07;;
35578;SDS011;21687;48.900;9.188;2023-06-10T15:10:26;3.03;;;2.83;;
35578;SDS011;21687;48.900;9.188;2023-06-10T15:12:52;3.20;;;3.00;;
35578;SDS011;21687;48.900;9.188;2023-06-10T15:15:21;3.73;;;3.50;;